sensor_id;sensor_type;location;lat;lon;timestamp;temperature;humidity
68766;DHT22;55756;45.582;11.484;2024-02-21T15:19:10;16.80;57.10
68766;DHT22;55756;45.582;11.484;2024-02-21T15:21:36;16.90;56.90
68766;DHT22;55756;45.582;11.484;2024-02-21T15:24:02;16.90;57.00
68766;DHT22;55756;45.582;11.484;2024-02-21T15:26:29;16.80;56.60
68766;DHT22;55756;45.582;11.484;2024-02-21T15:28:55;16.90;56.70
68766;DHT22;55756;45.582;11.484;2024-02-21T15:31:22;16.90;57.10
68766;DHT22;55756;45.582;11.484;2024-02-21T15:33:49;16.90;56.70
68766;DHT22;55756;45.582;11.484;2024-02-21T15:36:15;16.90;56.60
68766;DHT22;55756;45.582;11.484;2024-02-21T15:38:41;16.80;56.70
68766;DHT22;55756;45.582;11.484;2024-02-21T15:41:07;16.80;56.60
68766;DHT22;55756;45.582;11.484;2024-02-21T15:43:33;16.90;57.00
68766;DHT22;55756;45.582;11.484;2024-02-21T15:45:58;16.80;56.90
68766;DHT22;55756;45.582;11.484;2024-02-21T15:48:24;16.80;56.60
68766;DHT22;55756;45.582;11.484;2024-02-21T15:50:50;16.80;56.40
68766;DHT22;55756;45.582;11.484;2024-02-21T15:53:15;16.80;56.00
68766;DHT22;55756;45.582;11.484;2024-02-21T15:55:41;16.80;56.50
68766;DHT22;55756;45.582;11.484;2024-02-21T15:58:08;16.80;56.00
68766;DHT22;55756;45.582;11.484;2024-02-21T16:00:33;16.80;56.00
68766;DHT22;55756;45.582;11.484;2024-02-21T16:03:00;16.80;56.20
68766;DHT22;55756;45.582;11.484;2024-02-21T16:05:25;16.80;56.40
68766;DHT22;55756;45.582;11.484;2024-02-21T16:07:53;16.80;56.10
68766;DHT22;55756;45.582;11.484;2024-02-21T16:10:18;16.70;56.30
68766;DHT22;55756;45.582;11.484;2024-02-21T16:12:44;16.70;56.20
68766;DHT22;55756;45.582;11.484;2024-02-21T16:15:10;16.70;56.10
68766;DHT22;55756;45.582;11.484;2024-02-21T16:17:37;16.70;56.30
68766;DHT22;55756;45.582;11.484;2024-02-21T16:20:04;16.70;56.20
68766;DHT22;55756;45.582;11.484;2024-02-21T16:22:29;16.60;56.00
68766;DHT22;55756;45.582;11.484;2024-02-21T16:24:57;16.60;56.30
68766;DHT22;55756;45.582;11.484;2024-02-21T16:27:22;16.60;56.00
68766;DHT22;55756;45.582;11.484;2024-02-21T16:29:50;16.60;56.30
68766;DHT22;55756;45.582;11.484;2024-02-21T16:32:16;16.60;56.30
68766;DHT22;55756;45.582;11.484;2024-02-21T16:34:43;16.60;56.30
68766;DHT22;55756;45.582;11.484;2024-02-21T16:37:08;16.60;56.00
68766;DHT22;55756;45.582;11.484;2024-02-21T16:39:34;16.60;56.30
68766;DHT22;55756;45.582;11.484;2024-02-21T16:42:02;16.60;56.30
68766;DHT22;55756;45.582;11.484;2024-02-21T16:44:29;16.50;56.60
68766;DHT22;55756;45.582;11.484;2024-02-21T16:46:56;16.50;56.30
68766;DHT22;55756;45.582;11.484;2024-02-21T16:49:22;16.50;56.30
68766;DHT22;55756;45.582;11.484;2024-02-21T16:51:48;16.50;56.40
68766;DHT22;55756;45.582;11.484;2024-02-21T16:54:21;16.50;56.60
68766;DHT22;55756;45.582;11.484;2024-02-21T16:56:47;16.40;56.60
68766;DHT22;55756;45.582;11.484;2024-02-21T16:59:13;16.40;56.60
68766;DHT22;55756;45.582;11.484;2024-02-21T17:01:38;16.40;56.50
68766;DHT22;55756;45.582;11.484;2024-02-21T17:04:05;16.40;56.70
68766;DHT22;55756;45.582;11.484;2024-02-21T17:06:32;16.40;56.50
68766;DHT22;55756;45.582;11.484;2024-02-21T17:08:58;16.40;56.40
68766;DHT22;55756;45.582;11.484;2024-02-21T17:11:24;16.40;56.60
68766;DHT22;55756;45.582;11.484;2024-02-21T17:13:50;16.40;56.70
68766;DHT22;55756;45.582;11.484;2024-02-21T17:16:16;16.30;57.10
68766;DHT22;55756;45.582;11.484;2024-02-21T17:18:42;16.30;56.60
68766;DHT22;55756;45.582;11.484;2024-02-21T17:21:07;16.30;56.50
68766;DHT22;55756;45.582;11.484;2024-02-21T17:23:34;16.30;56.50
68766;DHT22;55756;45.582;11.484;2024-02-21T17:26:01;16.40;56.40
68766;DHT22;55756;45.582;11.484;2024-02-21T17:28:27;16.30;56.30
68766;DHT22;55756;45.582;11.484;2024-02-21T17:30:53;16.40;56.40
68766;DHT22;55756;45.582;11.484;2024-02-21T17:33:18;16.30;56.50
68766;DHT22;55756;45.582;11.484;2024-02-21T17:35:44;16.30;56.60
68766;DHT22;55756;45.582;11.484;2024-02-21T17:38:13;16.20;56.80
68766;DHT22;55756;45.582;11.484;2024-02-21T17:40:39;16.20;56.90
68766;DHT22;55756;45.582;11.484;2024-02-21T17:43:04;16.20;56.90
68766;DHT22;55756;45.582;11.484;2024-02-21T17:45:31;16.20;56.60
68766;DHT22;55756;45.582;11.484;2024-02-21T17:47:56;16.20;56.60
68766;DHT22;55756;45.582;11.484;2024-02-21T17:50:22;16.20;56.90
68766;DHT22;55756;45.582;11.484;2024-02-21T17:52:48;16.20;57.20
68766;DHT22;55756;45.582;11.484;2024-02-21T17:55:14;16.20;57.00
68766;DHT22;55756;45.582;11.484;2024-02-21T17:57:39;16.20;57.20
68766;DHT22;55756;45.582;11.484;2024-02-21T18:00:06;16.20;57.30
68766;DHT22;55756;45.582;11.484;2024-02-21T18:02:39;16.20;57.10
68766;DHT22;55756;45.582;11.484;2024-02-21T18:05:06;16.20;57.40
68766;DHT22;55756;45.582;11.484;2024-02-21T18:07:32;16.10;57.50
68766;DHT22;55756;45.582;11.484;2024-02-21T18:09:59;16.10;57.30
68766;DHT22;55756;45.582;11.484;2024-02-21T18:12:25;16.10;57.10
68766;DHT22;55756;45.582;11.484;2024-02-21T18:14:50;16.10;57.40
68766;DHT22;55756;45.582;11.484;2024-02-21T18:17:16;16.10;57.20
68766;DHT22;55756;45.582;11.484;2024-02-21T18:19:42;16.10;57.00
68766;DHT22;55756;45.582;11.484;2024-02-21T18:22:08;16.10;56.90
68766;DHT22;55756;45.582;11.484;2024-02-21T18:24:34;16.10;56.90
68766;DHT22;55756;45.582;11.484;2024-02-21T18:27:00;16.10;56.90
68766;DHT22;55756;45.582;11.484;2024-02-21T18:29:26;16.10;57.10
68766;DHT22;55756;45.582;11.484;2024-02-21T18:31:53;16.10;57.30
68766;DHT22;55756;45.582;11.484;2024-02-21T18:34:19;16.10;57.40
68766;DHT22;55756;45.582;11.484;2024-02-21T18:36:45;16.00;57.70
68766;DHT22;55756;45.582;11.484;2024-02-21T18:39:14;16.00;57.50
68766;DHT22;55756;45.582;11.484;2024-02-21T18:41:40;15.90;57.70
68766;DHT22;55756;45.582;11.484;2024-02-21T18:44:10;15.90;57.80
68766;DHT22;55756;45.582;11.484;2024-02-21T18:46:38;15.90;57.90
68766;DHT22;55756;45.582;11.484;2024-02-21T18:49:05;15.80;58.20
68766;DHT22;55756;45.582;11.484;2024-02-21T18:51:31;15.70;58.30
68766;DHT22;55756;45.582;11.484;2024-02-21T18:54:00;15.70;58.40
68766;DHT22;55756;45.582;11.484;2024-02-21T18:56:28;15.70;58.30
68766;DHT22;55756;45.582;11.484;2024-02-21T18:58:59;15.70;58.30
68766;DHT22;55756;45.582;11.484;2024-02-21T19:01:24;15.70;58.50
68766;DHT22;55756;45.582;11.484;2024-02-21T19:03:50;15.70;58.30
68766;DHT22;55756;45.582;11.484;2024-02-21T19:06:16;15.60;58.30
68766;DHT22;55756;45.582;11.484;2024-02-21T19:08:42;15.60;58.30
68766;DHT22;55756;45.582;11.484;2024-02-21T19:11:08;15.60;58.40
68766;DHT22;55756;45.582;11.484;2024-02-21T19:13:34;15.60;58.20
68766;DHT22;55756;45.582;11.484;2024-02-21T19:15:59;15.60;58.10
68766;DHT22;55756;45.582;11.484;2024-02-21T19:18:25;15.60;58.30
68766;DHT22;55756;45.582;11.484;2024-02-21T19:20:51;15.60;58.10
68766;DHT22;55756;45.582;11.484;2024-02-21T19:23:20;15.50;58.50
68766;DHT22;55756;45.582;11.484;2024-02-21T19:25:46;15.40;58.50
68766;DHT22;55756;45.582;11.484;2024-02-21T19:28:12;15.50;58.10
68766;DHT22;55756;45.582;11.484;2024-02-21T19:30:39;15.40;59.00
68766;DHT22;55756;45.582;11.484;2024-02-21T19:33:05;15.30;59.00
68766;DHT22;55756;45.582;11.484;2024-02-21T19:35:30;15.20;59.20
68766;DHT22;55756;45.582;11.484;2024-02-21T19:37:58;15.20;59.10
68766;DHT22;55756;45.582;11.484;2024-02-21T19:40:29;15.30;58.60
68766;DHT22;55756;45.582;11.484;2024-02-21T19:42:59;15.30;58.10
68766;DHT22;55756;45.582;11.484;2024-02-21T19:45:27;15.30;58.00
68766;DHT22;55756;45.582;11.484;2024-02-21T19:47:52;15.30;58.30
68766;DHT22;55756;45.582;11.484;2024-02-21T19:50:18;15.30;58.20
68766;DHT22;55756;45.582;11.484;2024-02-21T19:52:48;15.30;58.10
68766;DHT22;55756;45.582;11.484;2024-02-21T19:55:17;15.30;58.10
68766;DHT22;55756;45.582;11.484;2024-02-21T19:57:44;15.30;58.10
68766;DHT22;55756;45.582;11.484;2024-02-21T20:00:11;15.30;58.00
68766;DHT22;55756;45.582;11.484;2024-02-21T20:02:40;15.20;58.30
68766;DHT22;55756;45.582;11.484;2024-02-21T20:05:08;15.10;58.70
68766;DHT22;55756;45.582;11.484;2024-02-21T20:07:34;15.00;58.90
68766;DHT22;55756;45.582;11.484;2024-02-21T20:10:01;15.00;59.00
68766;DHT22;55756;45.582;11.484;2024-02-21T20:12:26;15.00;59.20
68766;DHT22;55756;45.582;11.484;2024-02-21T20:14:52;14.90;59.50
68766;DHT22;55756;45.582;11.484;2024-02-21T20:17:19;14.90;59.70
68766;DHT22;55756;45.582;11.484;2024-02-21T20:19:45;14.90;59.20
68766;DHT22;55756;45.582;11.484;2024-02-21T20:22:12;15.00;59.20
68766;DHT22;55756;45.582;11.484;2024-02-21T20:24:37;15.00;59.20
68766;DHT22;55756;45.582;11.484;2024-02-21T20:27:04;15.10;59.00
68766;DHT22;55756;45.582;11.484;2024-02-21T20:29:29;15.00;58.90
68766;DHT22;55756;45.582;11.484;2024-02-21T20:31:55;15.00;59.10
68766;DHT22;55756;45.582;11.484;2024-02-21T20:34:25;14.90;59.10
68766;DHT22;55756;45.582;11.484;2024-02-21T20:36:56;14.90;59.40
68766;DHT22;55756;45.582;11.484;2024-02-21T20:39:22;14.80;59.70
68766;DHT22;55756;45.582;11.484;2024-02-21T20:41:48;14.80;59.80
68766;DHT22;55756;45.582;11.484;2024-02-21T20:44:13;14.90;59.70
68766;DHT22;55756;45.582;11.484;2024-02-21T20:46:39;14.80;60.10
68766;DHT22;55756;45.582;11.484;2024-02-21T20:49:05;14.80;60.30
68766;DHT22;55756;45.582;11.484;2024-02-21T20:51:31;14.70;60.40
68766;DHT22;55756;45.582;11.484;2024-02-21T20:53:57;14.80;60.20
68766;DHT22;55756;45.582;11.484;2024-02-21T20:56:26;14.80;60.40
68766;DHT22;55756;45.582;11.484;2024-02-21T20:58:52;14.70;60.60
68766;DHT22;55756;45.582;11.484;2024-02-21T21:01:18;14.70;60.60
68766;DHT22;55756;45.582;11.484;2024-02-21T21:03:44;14.80;60.10
68766;DHT22;55756;45.582;11.484;2024-02-21T21:06:10;14.80;60.20
68766;DHT22;55756;45.582;11.484;2024-02-21T21:08:37;14.80;60.30
68766;DHT22;55756;45.582;11.484;2024-02-21T21:11:03;14.70;60.30
68766;DHT22;55756;45.582;11.484;2024-02-21T21:13:29;14.60;60.50
68766;DHT22;55756;45.582;11.484;2024-02-21T21:16:00;14.60;60.90
68766;DHT22;55756;45.582;11.484;2024-02-21T21:18:25;14.50;60.90
68766;DHT22;55756;45.582;11.484;2024-02-21T21:20:51;14.50;60.90
68766;DHT22;55756;45.582;11.484;2024-02-21T21:23:17;14.50;61.20
68766;DHT22;55756;45.582;11.484;2024-02-21T21:25:42;14.50;61.30
68766;DHT22;55756;45.582;11.484;2024-02-21T21:28:08;14.40;61.10
68766;DHT22;55756;45.582;11.484;2024-02-21T21:30:34;14.40;61.00
68766;DHT22;55756;45.582;11.484;2024-02-21T21:33:00;14.50;61.00
68766;DHT22;55756;45.582;11.484;2024-02-21T21:35:26;14.40;61.20
68766;DHT22;55756;45.582;11.484;2024-02-21T21:37:52;14.40;61.20
68766;DHT22;55756;45.582;11.484;2024-02-21T21:40:18;14.40;61.40
68766;DHT22;55756;45.582;11.484;2024-02-21T21:42:44;14.30;61.40
68766;DHT22;55756;45.582;11.484;2024-02-21T21:45:10;14.30;61.40
68766;DHT22;55756;45.582;11.484;2024-02-21T21:47:36;14.20;61.50
68766;DHT22;55756;45.582;11.484;2024-02-21T21:50:02;14.20;61.60
68766;DHT22;55756;45.582;11.484;2024-02-21T21:52:30;14.20;61.70
68766;DHT22;55756;45.582;11.484;2024-02-21T21:54:56;14.20;61.60
68766;DHT22;55756;45.582;11.484;2024-02-21T21:57:22;14.20;61.60
68766;DHT22;55756;45.582;11.484;2024-02-21T21:59:49;14.30;61.60
68766;DHT22;55756;45.582;11.484;2024-02-21T22:02:15;14.20;61.50
68766;DHT22;55756;45.582;11.484;2024-02-21T22:04:41;14.30;61.30
68766;DHT22;55756;45.582;11.484;2024-02-21T22:07:07;14.30;61.20
68766;DHT22;55756;45.582;11.484;2024-02-21T22:09:32;14.30;61.00
68766;DHT22;55756;45.582;11.484;2024-02-21T22:12:01;14.40;60.70
68766;DHT22;55756;45.582;11.484;2024-02-21T22:14:27;14.30;61.00
68766;DHT22;55756;45.582;11.484;2024-02-21T22:16:52;14.30;61.10
68766;DHT22;55756;45.582;11.484;2024-02-21T22:19:18;14.30;61.30
68766;DHT22;55756;45.582;11.484;2024-02-21T22:21:44;14.10;61.30
68766;DHT22;55756;45.582;11.484;2024-02-21T22:24:10;14.20;61.10
68766;DHT22;55756;45.582;11.484;2024-02-21T22:26:38;14.20;61.00
68766;DHT22;55756;45.582;11.484;2024-02-21T22:29:04;14.20;60.90
68766;DHT22;55756;45.582;11.484;2024-02-21T22:31:29;14.20;61.10
68766;DHT22;55756;45.582;11.484;2024-02-21T22:33:55;14.20;61.30
68766;DHT22;55756;45.582;11.484;2024-02-21T22:36:24;14.10;61.50
68766;DHT22;55756;45.582;11.484;2024-02-21T22:38:50;14.10;61.60
68766;DHT22;55756;45.582;11.484;2024-02-21T22:41:16;14.10;61.40
68766;DHT22;55756;45.582;11.484;2024-02-21T22:43:42;14.10;61.50
68766;DHT22;55756;45.582;11.484;2024-02-21T22:46:10;14.00;61.60
68766;DHT22;55756;45.582;11.484;2024-02-21T22:48:36;14.10;61.30
68766;DHT22;55756;45.582;11.484;2024-02-21T22:51:03;14.00;61.30
68766;DHT22;55756;45.582;11.484;2024-02-21T22:53:29;14.00;61.30
68766;DHT22;55756;45.582;11.484;2024-02-21T22:55:54;14.00;61.20
68766;DHT22;55756;45.582;11.484;2024-02-21T22:58:20;14.00;61.50
68766;DHT22;55756;45.582;11.484;2024-02-21T23:00:50;13.90;61.60
68766;DHT22;55756;45.582;11.484;2024-02-21T23:03:16;13.90;61.70
68766;DHT22;55756;45.582;11.484;2024-02-21T23:05:42;13.90;61.50
68766;DHT22;55756;45.582;11.484;2024-02-21T23:08:08;13.90;61.30
68766;DHT22;55756;45.582;11.484;2024-02-21T23:10:34;14.00;60.90
68766;DHT22;55756;45.582;11.484;2024-02-21T23:13:00;14.10;60.90
68766;DHT22;55756;45.582;11.484;2024-02-21T23:15:27;14.10;60.70
68766;DHT22;55756;45.582;11.484;2024-02-21T23:17:53;14.00;60.70
68766;DHT22;55756;45.582;11.484;2024-02-21T23:20:18;14.00;60.80
68766;DHT22;55756;45.582;11.484;2024-02-21T23:22:44;14.10;60.60
68766;DHT22;55756;45.582;11.484;2024-02-21T23:25:11;14.10;60.60
68766;DHT22;55756;45.582;11.484;2024-02-21T23:27:38;14.10;60.60
68766;DHT22;55756;45.582;11.484;2024-02-21T23:30:05;14.00;60.70
68766;DHT22;55756;45.582;11.484;2024-02-21T23:32:38;14.00;60.60
68766;DHT22;55756;45.582;11.484;2024-02-21T23:35:05;14.00;60.60
68766;DHT22;55756;45.582;11.484;2024-02-21T23:37:31;14.00;60.40
68766;DHT22;55756;45.582;11.484;2024-02-21T23:39:57;13.90;60.80
68766;DHT22;55756;45.582;11.484;2024-02-21T23:42:23;13.90;60.80
68766;DHT22;55756;45.582;11.484;2024-02-21T23:44:48;13.80;60.90
68766;DHT22;55756;45.582;11.484;2024-02-21T23:47:20;13.80;60.90
68766;DHT22;55756;45.582;11.484;2024-02-21T23:49:46;13.90;60.90
68766;DHT22;55756;45.582;11.484;2024-02-21T23:52:12;13.80;61.00
68766;DHT22;55756;45.582;11.484;2024-02-21T23:54:39;13.90;61.00
68766;DHT22;55756;45.582;11.484;2024-02-21T23:57:06;13.80;60.90
68766;DHT22;55756;45.582;11.484;2024-02-21T23:59:34;13.70;61.30
